Portland Troutdale Airport
KTTD : now visible

Airfield :











YOU CAN JOIN US ON...

 
LOGIN :

Register | Disclaimer

   EN    FR    IT 

 









Legend :    VFR   Marginal VFR   IFR   Intensive IFR   Very Intensive IFR
Visi :
Ceiling :
>= 8 km
>= 3000ft
5 to 8 km
1000 to 3000 ft
1500m to 5 km
500 to 1000 ft
800 to 1500m
200 to 500 ft
< 800m
< 200 ft
Symbols :   Thunderstorms  Fog  Heavy snow  Heavy precipitations  Wind > 20 kt






- Airport Elevation : 39 ft


KTTD - Portland Troutdale

CURRENT METAR :
  • 150653Z AUTO 00000KT 10SM BKN004 OVC020 02/01 A3005 RMK AO2 SLP175 T00220006

EXPIRED METARs :
  • 150623Z AUTO 00000KT 6SM BR BKN004 OVC021 02/00 A3004 RMK AO2 T00170000
  • 150615Z AUTO 00000KT 10SM BKN005 BKN021 02/01 A3004 RMK AO2 T00220006
  • 150602Z AUTO 00000KT 8SM FEW005 BKN022 BKN045 02/01 A3004 RMK AO2 T00170006
  • 150453Z 00000KT 7SM CLR 02/01 A3002 RMK AO2 SLP164 T00170006

TAF KTTD
Valid from the 15 at 07:00 until the 16 at 06:00 UTC


150651Z 1507/1606 00000KT 6SM BR BKN004 OVC020
FM150800 00000KT 4SM BR SCT007 OVC010
FM151800 VRB03KT P6SM SCT025 BKN050
FM160500 10003KT P6SM SCT012 BKN028



MET'MAP, your aeronautical weather chart ! - Copyright ORBIFLY December 2007 - Disclaimer

ORBIFLY MET'MAP TEAM :

Programming & Development : Alexandra Zaïnal
Concept & original design : Baudouin d'Aumeries
Assistance for programming : Marc-Olivier Méhu
Technical & hardware support : Manuel Goepfert

Contact : metmap@orbifly.com




SOURCES & CREDITS :

   NOAA       Earth
Advisory